sensor_id;sensor_type;location;lat;lon;timestamp;P1;durP1;ratioP1;P2;durP2;ratioP2
65377;SDS011;51982;51.042;13.806;2022-12-08T00:01:15;5.10;;;2.30;;
65377;SDS011;51982;51.042;13.806;2022-12-08T00:03:43;5.18;;;2.08;;
65377;SDS011;51982;51.042;13.806;2022-12-08T00:12:06;5.47;;;2.15;;
65377;SDS011;51982;51.042;13.806;2022-12-08T00:14:38;3.83;;;2.05;;
65377;SDS011;51982;51.042;13.806;2022-12-08T00:17:05;5.38;;;2.45;;
65377;SDS011;51982;51.042;13.806;2022-12-08T00:19:31;6.40;;;2.13;;
65377;SDS011;51982;51.042;13.806;2022-12-08T00:21:57;4.30;;;2.13;;
65377;SDS011;51982;51.042;13.806;2022-12-08T00:24:24;3.78;;;2.00;;
65377;SDS011;51982;51.042;13.806;2022-12-08T00:29:22;5.45;;;1.98;;
65377;SDS011;51982;51.042;13.806;2022-12-08T00:31:47;7.93;;;2.22;;
65377;SDS011;51982;51.042;13.806;2022-12-08T00:34:13;2.80;;;1.65;;
65377;SDS011;51982;51.042;13.806;2022-12-08T00:36:39;4.03;;;2.05;;
65377;SDS011;51982;51.042;13.806;2022-12-08T00:39:05;5.70;;;2.35;;
65377;SDS011;51982;51.042;13.806;2022-12-08T00:41:31;7.28;;;1.90;;
65377;SDS011;51982;51.042;13.806;2022-12-08T00:44:15;3.22;;;2.20;;
65377;SDS011;51982;51.042;13.806;2022-12-08T00:46:44;5.80;;;2.40;;
65377;SDS011;51982;51.042;13.806;2022-12-08T00:49:10;6.53;;;2.30;;
65377;SDS011;51982;51.042;13.806;2022-12-08T00:51:36;5.68;;;2.22;;
65377;SDS011;51982;51.042;13.806;2022-12-08T00:54:02;4.38;;;2.35;;
65377;SDS011;51982;51.042;13.806;2022-12-08T00:56:28;8.05;;;2.33;;
65377;SDS011;51982;51.042;13.806;2022-12-08T00:58:54;7.55;;;2.33;;
65377;SDS011;51982;51.042;13.806;2022-12-08T01:01:19;7.95;;;2.40;;
65377;SDS011;51982;51.042;13.806;2022-12-08T01:03:45;7.90;;;2.40;;
65377;SDS011;51982;51.042;13.806;2022-12-08T01:06:10;4.63;;;2.30;;
65377;SDS011;51982;51.042;13.806;2022-12-08T01:08:36;4.80;;;2.05;;
65377;SDS011;51982;51.042;13.806;2022-12-08T01:11:02;6.40;;;2.17;;
65377;SDS011;51982;51.042;13.806;2022-12-08T01:13:28;4.57;;;2.20;;
65377;SDS011;51982;51.042;13.806;2022-12-08T01:15:53;5.05;;;2.63;;
65377;SDS011;51982;51.042;13.806;2022-12-08T01:18:18;8.48;;;2.10;;
65377;SDS011;51982;51.042;13.806;2022-12-08T01:20:43;5.82;;;2.63;;
65377;SDS011;51982;51.042;13.806;2022-12-08T01:23:09;5.90;;;2.22;;
65377;SDS011;51982;51.042;13.806;2022-12-08T01:25:34;8.48;;;2.28;;
65377;SDS011;51982;51.042;13.806;2022-12-08T01:27:59;6.30;;;2.17;;
65377;SDS011;51982;51.042;13.806;2022-12-08T01:30:24;4.45;;;2.28;;
65377;SDS011;51982;51.042;13.806;2022-12-08T01:32:50;5.88;;;2.30;;
65377;SDS011;51982;51.042;13.806;2022-12-08T01:35:15;10.10;;;2.20;;
65377;SDS011;51982;51.042;13.806;2022-12-08T01:37:40;8.60;;;2.67;;
65377;SDS011;51982;51.042;13.806;2022-12-08T01:40:06;3.55;;;2.08;;
65377;SDS011;51982;51.042;13.806;2022-12-08T01:42:31;4.47;;;2.50;;
65377;SDS011;51982;51.042;13.806;2022-12-08T01:45:02;5.57;;;2.33;;
65377;SDS011;51982;51.042;13.806;2022-12-08T01:47:33;5.78;;;2.45;;
65377;SDS011;51982;51.042;13.806;2022-12-08T01:50:05;7.30;;;2.13;;
65377;SDS011;51982;51.042;13.806;2022-12-08T01:52:32;5.28;;;2.10;;
65377;SDS011;51982;51.042;13.806;2022-12-08T01:55:04;6.15;;;2.38;;
65377;SDS011;51982;51.042;13.806;2022-12-08T01:57:41;5.45;;;2.10;;
65377;SDS011;51982;51.042;13.806;2022-12-08T02:00:12;4.70;;;2.22;;
65377;SDS011;51982;51.042;13.806;2022-12-08T02:02:45;5.75;;;2.33;;
65377;SDS011;51982;51.042;13.806;2022-12-08T02:05:27;5.47;;;2.20;;
65377;SDS011;51982;51.042;13.806;2022-12-08T02:07:55;8.73;;;2.70;;
65377;SDS011;51982;51.042;13.806;2022-12-08T02:10:22;3.63;;;2.30;;
65377;SDS011;51982;51.042;13.806;2022-12-08T02:12:49;4.70;;;2.45;;
65377;SDS011;51982;51.042;13.806;2022-12-08T02:15:17;5.15;;;2.40;;
65377;SDS011;51982;51.042;13.806;2022-12-08T02:17:56;3.97;;;2.42;;
65377;SDS011;51982;51.042;13.806;2022-12-08T02:23:23;6.53;;;2.47;;
65377;SDS011;51982;51.042;13.806;2022-12-08T02:26:16;5.82;;;2.28;;
65377;SDS011;51982;51.042;13.806;2022-12-08T02:34:37;6.38;;;2.28;;
65377;SDS011;51982;51.042;13.806;2022-12-08T02:37:15;5.38;;;2.60;;
65377;SDS011;51982;51.042;13.806;2022-12-08T02:39:58;6.97;;;2.22;;
65377;SDS011;51982;51.042;13.806;2022-12-08T02:45:08;7.10;;;2.35;;
65377;SDS011;51982;51.042;13.806;2022-12-08T02:47:39;9.40;;;2.90;;
65377;SDS011;51982;51.042;13.806;2022-12-08T02:50:05;8.85;;;3.05;;
65377;SDS011;51982;51.042;13.806;2022-12-08T02:55:03;5.67;;;2.87;;
65377;SDS011;51982;51.042;13.806;2022-12-08T03:00:20;4.20;;;2.40;;
65377;SDS011;51982;51.042;13.806;2022-12-08T03:03:08;7.50;;;2.67;;
65377;SDS011;51982;51.042;13.806;2022-12-08T03:05:46;5.68;;;2.80;;
65377;SDS011;51982;51.042;13.806;2022-12-08T03:08:36;5.45;;;2.60;;
65377;SDS011;51982;51.042;13.806;2022-12-08T03:11:14;5.10;;;2.60;;
65377;SDS011;51982;51.042;13.806;2022-12-08T03:13:45;6.45;;;2.58;;
65377;SDS011;51982;51.042;13.806;2022-12-08T03:16:14;6.55;;;2.90;;
65377;SDS011;51982;51.042;13.806;2022-12-08T03:18:47;4.95;;;2.70;;
65377;SDS011;51982;51.042;13.806;2022-12-08T03:21:15;5.50;;;2.53;;
65377;SDS011;51982;51.042;13.806;2022-12-08T03:23:43;4.72;;;2.45;;
65377;SDS011;51982;51.042;13.806;2022-12-08T03:26:11;3.67;;;2.53;;
65377;SDS011;51982;51.042;13.806;2022-12-08T03:28:42;6.13;;;2.42;;
65377;SDS011;51982;51.042;13.806;2022-12-08T03:31:09;7.75;;;2.80;;
65377;SDS011;51982;51.042;13.806;2022-12-08T03:33:39;4.20;;;2.47;;
65377;SDS011;51982;51.042;13.806;2022-12-08T03:36:07;5.38;;;2.92;;
65377;SDS011;51982;51.042;13.806;2022-12-08T03:38:41;4.90;;;2.47;;
65377;SDS011;51982;51.042;13.806;2022-12-08T03:41:08;6.75;;;2.58;;
65377;SDS011;51982;51.042;13.806;2022-12-08T03:43:47;6.60;;;2.55;;
65377;SDS011;51982;51.042;13.806;2022-12-08T03:46:14;5.38;;;2.20;;
65377;SDS011;51982;51.042;13.806;2022-12-08T03:48:40;4.95;;;2.50;;
65377;SDS011;51982;51.042;13.806;2022-12-08T03:51:06;4.80;;;2.70;;
65377;SDS011;51982;51.042;13.806;2022-12-08T03:53:32;4.32;;;2.60;;
65377;SDS011;51982;51.042;13.806;2022-12-08T03:55:57;4.82;;;2.78;;
65377;SDS011;51982;51.042;13.806;2022-12-08T03:58:22;6.68;;;2.90;;
65377;SDS011;51982;51.042;13.806;2022-12-08T04:00:48;4.28;;;2.63;;
65377;SDS011;51982;51.042;13.806;2022-12-08T04:03:13;5.63;;;2.70;;
65377;SDS011;51982;51.042;13.806;2022-12-08T04:05:38;8.75;;;2.92;;
65377;SDS011;51982;51.042;13.806;2022-12-08T04:08:04;5.30;;;2.38;;
65377;SDS011;51982;51.042;13.806;2022-12-08T04:10:29;5.05;;;2.50;;
65377;SDS011;51982;51.042;13.806;2022-12-08T04:12:55;7.15;;;2.47;;
65377;SDS011;51982;51.042;13.806;2022-12-08T04:15:21;4.60;;;2.67;;
65377;SDS011;51982;51.042;13.806;2022-12-08T04:17:46;3.53;;;2.38;;
65377;SDS011;51982;51.042;13.806;2022-12-08T04:20:11;6.30;;;2.75;;
65377;SDS011;51982;51.042;13.806;2022-12-08T04:22:37;4.40;;;2.67;;
65377;SDS011;51982;51.042;13.806;2022-12-08T04:25:02;8.05;;;3.00;;
65377;SDS011;51982;51.042;13.806;2022-12-08T04:27:27;6.35;;;3.40;;
65377;SDS011;51982;51.042;13.806;2022-12-08T04:29:53;5.53;;;2.90;;
65377;SDS011;51982;51.042;13.806;2022-12-08T04:32:19;6.80;;;3.17;;
65377;SDS011;51982;51.042;13.806;2022-12-08T04:34:44;6.00;;;3.40;;
65377;SDS011;51982;51.042;13.806;2022-12-08T04:37:09;6.30;;;3.05;;
65377;SDS011;51982;51.042;13.806;2022-12-08T04:39:34;6.53;;;3.10;;
65377;SDS011;51982;51.042;13.806;2022-12-08T04:42:00;6.43;;;3.65;;
65377;SDS011;51982;51.042;13.806;2022-12-08T04:44:25;6.32;;;3.45;;
65377;SDS011;51982;51.042;13.806;2022-12-08T04:46:50;4.93;;;2.88;;
65377;SDS011;51982;51.042;13.806;2022-12-08T04:49:15;9.10;;;4.15;;
65377;SDS011;51982;51.042;13.806;2022-12-08T04:51:41;14.00;;;4.53;;
65377;SDS011;51982;51.042;13.806;2022-12-08T04:54:06;9.35;;;4.00;;
65377;SDS011;51982;51.042;13.806;2022-12-08T04:56:32;10.70;;;4.80;;
65377;SDS011;51982;51.042;13.806;2022-12-08T04:58:57;6.95;;;3.45;;
65377;SDS011;51982;51.042;13.806;2022-12-08T05:01:22;9.20;;;3.75;;
65377;SDS011;51982;51.042;13.806;2022-12-08T05:03:47;9.63;;;3.45;;
65377;SDS011;51982;51.042;13.806;2022-12-08T05:06:13;7.63;;;3.35;;
65377;SDS011;51982;51.042;13.806;2022-12-08T05:08:38;12.95;;;3.38;;
65377;SDS011;51982;51.042;13.806;2022-12-08T05:11:05;8.57;;;3.60;;
65377;SDS011;51982;51.042;13.806;2022-12-08T05:13:32;4.75;;;2.97;;
65377;SDS011;51982;51.042;13.806;2022-12-08T05:16:04;5.22;;;3.20;;
65377;SDS011;51982;51.042;13.806;2022-12-08T05:18:35;4.80;;;3.08;;
65377;SDS011;51982;51.042;13.806;2022-12-08T05:21:01;7.53;;;3.45;;
65377;SDS011;51982;51.042;13.806;2022-12-08T05:23:27;6.95;;;3.38;;
65377;SDS011;51982;51.042;13.806;2022-12-08T05:25:52;5.05;;;2.88;;
65377;SDS011;51982;51.042;13.806;2022-12-08T05:28:17;5.20;;;3.22;;
65377;SDS011;51982;51.042;13.806;2022-12-08T05:30:43;7.28;;;3.67;;
65377;SDS011;51982;51.042;13.806;2022-12-08T05:33:09;5.95;;;3.33;;
65377;SDS011;51982;51.042;13.806;2022-12-08T05:35:35;5.70;;;3.33;;
65377;SDS011;51982;51.042;13.806;2022-12-08T05:38:00;5.35;;;3.40;;
65377;SDS011;51982;51.042;13.806;2022-12-08T05:40:25;5.93;;;3.85;;
65377;SDS011;51982;51.042;13.806;2022-12-08T05:42:51;7.57;;;3.92;;
65377;SDS011;51982;51.042;13.806;2022-12-08T05:45:17;12.50;;;5.88;;
65377;SDS011;51982;51.042;13.806;2022-12-08T05:47:42;10.90;;;5.45;;
65377;SDS011;51982;51.042;13.806;2022-12-08T05:50:07;9.60;;;5.28;;
65377;SDS011;51982;51.042;13.806;2022-12-08T05:52:33;10.88;;;5.45;;
65377;SDS011;51982;51.042;13.806;2022-12-08T05:54:58;11.73;;;5.20;;
65377;SDS011;51982;51.042;13.806;2022-12-08T05:57:24;11.50;;;4.78;;
65377;SDS011;51982;51.042;13.806;2022-12-08T05:59:49;7.63;;;4.28;;
65377;SDS011;51982;51.042;13.806;2022-12-08T06:02:14;8.32;;;4.28;;
65377;SDS011;51982;51.042;13.806;2022-12-08T06:04:39;7.47;;;3.92;;
65377;SDS011;51982;51.042;13.806;2022-12-08T06:07:05;7.53;;;3.85;;
65377;SDS011;51982;51.042;13.806;2022-12-08T06:09:32;8.23;;;3.90;;
65377;SDS011;51982;51.042;13.806;2022-12-08T06:11:57;5.25;;;3.53;;
65377;SDS011;51982;51.042;13.806;2022-12-08T06:14:22;6.82;;;3.70;;
65377;SDS011;51982;51.042;13.806;2022-12-08T06:16:48;5.90;;;3.97;;
65377;SDS011;51982;51.042;13.806;2022-12-08T06:19:14;5.68;;;3.20;;
65377;SDS011;51982;51.042;13.806;2022-12-08T06:21:39;6.25;;;3.70;;
65377;SDS011;51982;51.042;13.806;2022-12-08T06:24:04;6.78;;;3.45;;
65377;SDS011;51982;51.042;13.806;2022-12-08T06:26:30;6.45;;;3.88;;
65377;SDS011;51982;51.042;13.806;2022-12-08T06:28:55;6.93;;;3.83;;
65377;SDS011;51982;51.042;13.806;2022-12-08T06:31:22;6.80;;;3.63;;
65377;SDS011;51982;51.042;13.806;2022-12-08T06:33:48;6.32;;;4.05;;
65377;SDS011;51982;51.042;13.806;2022-12-08T06:36:14;7.50;;;3.90;;
65377;SDS011;51982;51.042;13.806;2022-12-08T06:38:41;8.18;;;4.28;;
65377;SDS011;51982;51.042;13.806;2022-12-08T06:41:06;7.38;;;4.10;;
65377;SDS011;51982;51.042;13.806;2022-12-08T06:43:32;6.32;;;3.97;;
65377;SDS011;51982;51.042;13.806;2022-12-08T06:45:57;7.78;;;4.57;;
65377;SDS011;51982;51.042;13.806;2022-12-08T06:48:23;6.75;;;3.88;;
65377;SDS011;51982;51.042;13.806;2022-12-08T06:50:49;7.82;;;4.53;;
65377;SDS011;51982;51.042;13.806;2022-12-08T06:53:14;6.82;;;3.63;;
65377;SDS011;51982;51.042;13.806;2022-12-08T06:55:43;6.00;;;3.70;;
65377;SDS011;51982;51.042;13.806;2022-12-08T06:58:10;7.40;;;4.28;;
65377;SDS011;51982;51.042;13.806;2022-12-08T07:00:37;7.32;;;3.78;;
65377;SDS011;51982;51.042;13.806;2022-12-08T07:03:02;6.90;;;3.65;;
65377;SDS011;51982;51.042;13.806;2022-12-08T07:05:28;6.28;;;3.80;;
65377;SDS011;51982;51.042;13.806;2022-12-08T07:07:53;7.38;;;4.38;;
65377;SDS011;51982;51.042;13.806;2022-12-08T07:10:18;7.25;;;3.92;;
65377;SDS011;51982;51.042;13.806;2022-12-08T07:12:43;6.35;;;3.65;;
65377;SDS011;51982;51.042;13.806;2022-12-08T07:15:09;9.68;;;3.85;;
65377;SDS011;51982;51.042;13.806;2022-12-08T07:17:34;9.43;;;4.57;;
65377;SDS011;51982;51.042;13.806;2022-12-08T07:19:59;14.52;;;5.63;;
65377;SDS011;51982;51.042;13.806;2022-12-08T07:22:25;13.27;;;5.28;;
65377;SDS011;51982;51.042;13.806;2022-12-08T07:24:50;13.18;;;5.28;;
65377;SDS011;51982;51.042;13.806;2022-12-08T07:27:15;13.43;;;5.55;;
65377;SDS011;51982;51.042;13.806;2022-12-08T07:29:41;10.45;;;4.78;;
65377;SDS011;51982;51.042;13.806;2022-12-08T07:32:06;8.52;;;3.95;;
65377;SDS011;51982;51.042;13.806;2022-12-08T07:34:32;8.70;;;4.32;;
65377;SDS011;51982;51.042;13.806;2022-12-08T07:36:57;17.58;;;5.70;;
65377;SDS011;51982;51.042;13.806;2022-12-08T07:39:22;9.30;;;4.05;;
65377;SDS011;51982;51.042;13.806;2022-12-08T07:41:47;9.20;;;4.47;;
65377;SDS011;51982;51.042;13.806;2022-12-08T07:44:13;8.80;;;4.22;;
65377;SDS011;51982;51.042;13.806;2022-12-08T07:46:38;8.15;;;4.10;;
65377;SDS011;51982;51.042;13.806;2022-12-08T07:49:03;7.40;;;3.38;;
65377;SDS011;51982;51.042;13.806;2022-12-08T07:51:29;5.70;;;3.40;;
65377;SDS011;51982;51.042;13.806;2022-12-08T07:53:54;6.72;;;3.65;;
65377;SDS011;51982;51.042;13.806;2022-12-08T07:56:20;7.40;;;3.80;;
65377;SDS011;51982;51.042;13.806;2022-12-08T07:58:45;10.55;;;3.80;;
65377;SDS011;51982;51.042;13.806;2022-12-08T08:01:18;7.72;;;3.80;;
65377;SDS011;51982;51.042;13.806;2022-12-08T08:03:43;6.18;;;3.97;;
65377;SDS011;51982;51.042;13.806;2022-12-08T08:06:09;8.82;;;4.93;;
65377;SDS011;51982;51.042;13.806;2022-12-08T08:08:34;7.10;;;4.28;;
65377;SDS011;51982;51.042;13.806;2022-12-08T08:11:04;7.75;;;4.80;;
65377;SDS011;51982;51.042;13.806;2022-12-08T08:13:30;9.50;;;4.72;;
65377;SDS011;51982;51.042;13.806;2022-12-08T08:16:03;6.65;;;4.07;;
65377;SDS011;51982;51.042;13.806;2022-12-08T08:18:33;7.57;;;3.80;;
65377;SDS011;51982;51.042;13.806;2022-12-08T08:20:59;6.38;;;3.50;;
65377;SDS011;51982;51.042;13.806;2022-12-08T08:23:24;5.95;;;3.85;;
65377;SDS011;51982;51.042;13.806;2022-12-08T08:25:50;6.50;;;3.72;;
65377;SDS011;51982;51.042;13.806;2022-12-08T08:28:15;6.75;;;3.95;;
65377;SDS011;51982;51.042;13.806;2022-12-08T08:30:40;7.45;;;4.05;;
65377;SDS011;51982;51.042;13.806;2022-12-08T08:33:05;5.15;;;3.60;;
65377;SDS011;51982;51.042;13.806;2022-12-08T08:35:32;6.40;;;3.67;;
65377;SDS011;51982;51.042;13.806;2022-12-08T08:37:58;7.20;;;4.15;;
65377;SDS011;51982;51.042;13.806;2022-12-08T08:40:23;8.50;;;4.40;;
65377;SDS011;51982;51.042;13.806;2022-12-08T08:42:48;7.28;;;3.95;;
65377;SDS011;51982;51.042;13.806;2022-12-08T08:45:13;6.10;;;3.42;;
65377;SDS011;51982;51.042;13.806;2022-12-08T08:47:39;6.25;;;3.67;;
65377;SDS011;51982;51.042;13.806;2022-12-08T08:50:04;7.10;;;3.97;;
65377;SDS011;51982;51.042;13.806;2022-12-08T08:52:30;6.85;;;3.83;;
65377;SDS011;51982;51.042;13.806;2022-12-08T08:54:55;6.80;;;4.25;;
65377;SDS011;51982;51.042;13.806;2022-12-08T08:57:21;6.53;;;4.35;;
65377;SDS011;51982;51.042;13.806;2022-12-08T08:59:46;6.22;;;3.78;;
65377;SDS011;51982;51.042;13.806;2022-12-08T09:02:15;7.53;;;4.07;;
65377;SDS011;51982;51.042;13.806;2022-12-08T09:04:42;7.35;;;4.43;;
65377;SDS011;51982;51.042;13.806;2022-12-08T09:07:07;8.23;;;4.07;;
65377;SDS011;51982;51.042;13.806;2022-12-08T09:09:33;6.13;;;3.83;;
65377;SDS011;51982;51.042;13.806;2022-12-08T09:11:58;6.93;;;3.95;;
65377;SDS011;51982;51.042;13.806;2022-12-08T09:14:23;7.00;;;4.22;;
65377;SDS011;51982;51.042;13.806;2022-12-08T09:16:49;5.85;;;3.90;;
65377;SDS011;51982;51.042;13.806;2022-12-08T09:19:15;10.57;;;4.38;;
65377;SDS011;51982;51.042;13.806;2022-12-08T09:21:40;5.82;;;4.03;;
65377;SDS011;51982;51.042;13.806;2022-12-08T09:24:05;6.68;;;4.55;;
65377;SDS011;51982;51.042;13.806;2022-12-08T09:26:32;10.20;;;4.75;;
65377;SDS011;51982;51.042;13.806;2022-12-08T09:28:57;10.10;;;3.92;;
65377;SDS011;51982;51.042;13.806;2022-12-08T09:31:23;9.82;;;4.68;;
65377;SDS011;51982;51.042;13.806;2022-12-08T09:33:49;6.40;;;3.83;;
65377;SDS011;51982;51.042;13.806;2022-12-08T09:36:17;9.35;;;4.28;;
65377;SDS011;51982;51.042;13.806;2022-12-08T09:38:42;7.25;;;4.28;;
65377;SDS011;51982;51.042;13.806;2022-12-08T09:41:29;7.30;;;4.38;;
65377;SDS011;51982;51.042;13.806;2022-12-08T09:46:57;6.35;;;3.67;;
65377;SDS011;51982;51.042;13.806;2022-12-08T09:49:36;6.40;;;3.90;;
65377;SDS011;51982;51.042;13.806;2022-12-08T09:52:08;7.32;;;4.45;;
65377;SDS011;51982;51.042;13.806;2022-12-08T09:54:43;7.07;;;3.95;;
65377;SDS011;51982;51.042;13.806;2022-12-08T09:57:10;5.70;;;3.38;;
65377;SDS011;51982;51.042;13.806;2022-12-08T09:59:39;5.60;;;3.55;;
65377;SDS011;51982;51.042;13.806;2022-12-08T10:02:19;6.60;;;3.40;;
65377;SDS011;51982;51.042;13.806;2022-12-08T10:04:46;8.48;;;3.97;;
65377;SDS011;51982;51.042;13.806;2022-12-08T10:07:14;5.85;;;3.72;;
65377;SDS011;51982;51.042;13.806;2022-12-08T10:18:08;6.35;;;3.63;;
65377;SDS011;51982;51.042;13.806;2022-12-08T10:20:37;5.18;;;3.70;;
65377;SDS011;51982;51.042;13.806;2022-12-08T10:25:40;5.53;;;3.33;;
65377;SDS011;51982;51.042;13.806;2022-12-08T10:28:09;4.30;;;2.73;;
65377;SDS011;51982;51.042;13.806;2022-12-08T10:30:35;4.53;;;2.78;;
65377;SDS011;51982;51.042;13.806;2022-12-08T10:33:00;6.28;;;3.20;;
65377;SDS011;51982;51.042;13.806;2022-12-08T10:35:41;6.55;;;2.83;;
65377;SDS011;51982;51.042;13.806;2022-12-08T10:38:08;6.45;;;3.22;;
65377;SDS011;51982;51.042;13.806;2022-12-08T10:40:58;5.40;;;2.90;;
65377;SDS011;51982;51.042;13.806;2022-12-08T10:43:30;6.35;;;2.75;;
65377;SDS011;51982;51.042;13.806;2022-12-08T10:46:10;9.07;;;4.28;;
65377;SDS011;51982;51.042;13.806;2022-12-08T10:48:45;13.00;;;4.97;;
65377;SDS011;51982;51.042;13.806;2022-12-08T10:51:29;6.25;;;3.60;;
65377;SDS011;51982;51.042;13.806;2022-12-08T10:54:00;7.50;;;3.75;;
65377;SDS011;51982;51.042;13.806;2022-12-08T10:56:27;7.35;;;3.80;;
65377;SDS011;51982;51.042;13.806;2022-12-08T10:59:04;7.15;;;3.17;;
65377;SDS011;51982;51.042;13.806;2022-12-08T11:01:36;11.02;;;4.32;;
65377;SDS011;51982;51.042;13.806;2022-12-08T11:04:17;9.90;;;4.05;;
65377;SDS011;51982;51.042;13.806;2022-12-08T11:06:43;5.38;;;3.20;;
65377;SDS011;51982;51.042;13.806;2022-12-08T11:14:15;14.48;;;5.40;;
65377;SDS011;51982;51.042;13.806;2022-12-08T11:17:07;6.85;;;3.33;;
65377;SDS011;51982;51.042;13.806;2022-12-08T11:20:00;5.32;;;3.35;;
65377;SDS011;51982;51.042;13.806;2022-12-08T11:22:37;6.03;;;3.05;;
65377;SDS011;51982;51.042;13.806;2022-12-08T11:27:32;3.40;;;2.67;;
65377;SDS011;51982;51.042;13.806;2022-12-08T11:30:00;3.80;;;2.38;;
65377;SDS011;51982;51.042;13.806;2022-12-08T11:32:26;4.10;;;2.72;;
65377;SDS011;51982;51.042;13.806;2022-12-08T11:34:54;3.80;;;2.50;;
65377;SDS011;51982;51.042;13.806;2022-12-08T11:40:27;7.63;;;2.65;;
65377;SDS011;51982;51.042;13.806;2022-12-08T11:45:49;3.47;;;2.50;;
65377;SDS011;51982;51.042;13.806;2022-12-08T11:48:40;3.80;;;2.15;;
65377;SDS011;51982;51.042;13.806;2022-12-08T11:53:40;3.15;;;2.03;;
65377;SDS011;51982;51.042;13.806;2022-12-08T11:56:44;4.95;;;2.22;;
65377;SDS011;51982;51.042;13.806;2022-12-08T12:02:06;4.28;;;2.60;;
65377;SDS011;51982;51.042;13.806;2022-12-08T12:04:40;8.10;;;2.20;;
65377;SDS011;51982;51.042;13.806;2022-12-08T12:09:40;3.88;;;2.60;;
65377;SDS011;51982;51.042;13.806;2022-12-08T12:18:10;4.13;;;2.20;;
65377;SDS011;51982;51.042;13.806;2022-12-08T12:26:09;2.92;;;2.00;;
65377;SDS011;51982;51.042;13.806;2022-12-08T12:28:51;5.82;;;2.10;;
65377;SDS011;51982;51.042;13.806;2022-12-08T12:31:21;3.72;;;2.10;;
65377;SDS011;51982;51.042;13.806;2022-12-08T12:33:49;3.30;;;1.90;;
65377;SDS011;51982;51.042;13.806;2022-12-08T12:36:15;5.20;;;2.70;;
65377;SDS011;51982;51.042;13.806;2022-12-08T12:38:48;2.97;;;2.17;;
65377;SDS011;51982;51.042;13.806;2022-12-08T12:41:26;3.40;;;1.85;;
65377;SDS011;51982;51.042;13.806;2022-12-08T12:46:40;4.38;;;1.70;;
65377;SDS011;51982;51.042;13.806;2022-12-08T12:59:47;4.43;;;2.10;;
65377;SDS011;51982;51.042;13.806;2022-12-08T13:02:32;4.32;;;2.17;;
65377;SDS011;51982;51.042;13.806;2022-12-08T13:05:22;3.00;;;2.00;;
65377;SDS011;51982;51.042;13.806;2022-12-08T13:07:55;4.93;;;2.30;;
65377;SDS011;51982;51.042;13.806;2022-12-08T13:18:27;4.28;;;2.42;;
65377;SDS011;51982;51.042;13.806;2022-12-08T13:21:10;4.82;;;2.60;;
65377;SDS011;51982;51.042;13.806;2022-12-08T13:23:44;3.72;;;2.17;;
65377;SDS011;51982;51.042;13.806;2022-12-08T13:26:12;2.50;;;1.55;;
65377;SDS011;51982;51.042;13.806;2022-12-08T13:29:03;2.60;;;1.98;;
65377;SDS011;51982;51.042;13.806;2022-12-08T13:34:12;4.28;;;2.40;;
65377;SDS011;51982;51.042;13.806;2022-12-08T13:36:50;3.90;;;2.22;;
65377;SDS011;51982;51.042;13.806;2022-12-08T13:39:25;3.55;;;2.30;;
65377;SDS011;51982;51.042;13.806;2022-12-08T13:41:58;3.55;;;2.20;;
65377;SDS011;51982;51.042;13.806;2022-12-08T13:44:42;3.47;;;2.30;;
65377;SDS011;51982;51.042;13.806;2022-12-08T13:47:11;3.88;;;2.10;;
65377;SDS011;51982;51.042;13.806;2022-12-08T13:49:50;3.40;;;2.13;;
65377;SDS011;51982;51.042;13.806;2022-12-08T13:52:35;3.35;;;2.15;;
65377;SDS011;51982;51.042;13.806;2022-12-08T13:55:04;5.95;;;2.30;;
65377;SDS011;51982;51.042;13.806;2022-12-08T13:57:39;3.45;;;2.40;;
65377;SDS011;51982;51.042;13.806;2022-12-08T14:00:05;3.25;;;2.00;;
65377;SDS011;51982;51.042;13.806;2022-12-08T14:02:42;5.90;;;2.17;;
65377;SDS011;51982;51.042;13.806;2022-12-08T14:05:10;4.25;;;2.50;;
65377;SDS011;51982;51.042;13.806;2022-12-08T14:07:35;7.25;;;2.40;;
65377;SDS011;51982;51.042;13.806;2022-12-08T14:10:05;4.35;;;2.30;;
65377;SDS011;51982;51.042;13.806;2022-12-08T14:12:33;6.22;;;2.38;;
65377;SDS011;51982;51.042;13.806;2022-12-08T14:15:00;5.50;;;3.30;;
65377;SDS011;51982;51.042;13.806;2022-12-08T14:17:32;7.15;;;3.80;;
65377;SDS011;51982;51.042;13.806;2022-12-08T14:19:59;5.20;;;3.38;;
65377;SDS011;51982;51.042;13.806;2022-12-08T14:22:33;4.00;;;2.25;;
65377;SDS011;51982;51.042;13.806;2022-12-08T14:25:00;4.28;;;2.42;;
65377;SDS011;51982;51.042;13.806;2022-12-08T14:27:26;4.75;;;2.70;;
65377;SDS011;51982;51.042;13.806;2022-12-08T14:29:59;4.45;;;2.85;;
65377;SDS011;51982;51.042;13.806;2022-12-08T14:37:57;5.00;;;2.13;;
65377;SDS011;51982;51.042;13.806;2022-12-08T14:40:43;8.82;;;2.70;;
65377;SDS011;51982;51.042;13.806;2022-12-08T14:53:46;8.68;;;3.13;;
65377;SDS011;51982;51.042;13.806;2022-12-08T14:56:24;5.63;;;2.50;;
65377;SDS011;51982;51.042;13.806;2022-12-08T15:01:41;5.90;;;2.83;;
65377;SDS011;51982;51.042;13.806;2022-12-08T15:06:36;7.63;;;2.90;;
65377;SDS011;51982;51.042;13.806;2022-12-08T15:09:12;5.80;;;2.67;;
65377;SDS011;51982;51.042;13.806;2022-12-08T15:11:39;7.85;;;3.10;;
65377;SDS011;51982;51.042;13.806;2022-12-08T15:14:23;4.97;;;2.80;;
65377;SDS011;51982;51.042;13.806;2022-12-08T15:21:58;5.97;;;2.90;;
65377;SDS011;51982;51.042;13.806;2022-12-08T15:24:33;4.88;;;2.63;;
65377;SDS011;51982;51.042;13.806;2022-12-08T15:26:59;5.70;;;3.00;;
65377;SDS011;51982;51.042;13.806;2022-12-08T15:29:27;8.48;;;3.10;;
65377;SDS011;51982;51.042;13.806;2022-12-08T15:31:55;5.00;;;2.85;;
65377;SDS011;51982;51.042;13.806;2022-12-08T15:34:21;5.97;;;3.00;;
65377;SDS011;51982;51.042;13.806;2022-12-08T15:36:48;7.78;;;2.80;;
65377;SDS011;51982;51.042;13.806;2022-12-08T15:39:17;5.10;;;3.03;;
65377;SDS011;51982;51.042;13.806;2022-12-08T15:41:45;7.20;;;2.80;;
65377;SDS011;51982;51.042;13.806;2022-12-08T15:44:10;4.63;;;2.80;;
65377;SDS011;51982;51.042;13.806;2022-12-08T15:46:35;5.10;;;2.58;;
65377;SDS011;51982;51.042;13.806;2022-12-08T15:49:01;4.43;;;2.50;;
65377;SDS011;51982;51.042;13.806;2022-12-08T15:51:26;10.00;;;2.95;;
65377;SDS011;51982;51.042;13.806;2022-12-08T15:53:51;5.50;;;2.70;;
65377;SDS011;51982;51.042;13.806;2022-12-08T15:56:16;5.90;;;2.95;;
65377;SDS011;51982;51.042;13.806;2022-12-08T15:58:42;6.65;;;3.20;;
65377;SDS011;51982;51.042;13.806;2022-12-08T16:01:07;4.90;;;2.95;;
65377;SDS011;51982;51.042;13.806;2022-12-08T16:03:32;9.77;;;3.00;;
65377;SDS011;51982;51.042;13.806;2022-12-08T16:05:58;10.10;;;3.10;;
65377;SDS011;51982;51.042;13.806;2022-12-08T16:08:25;5.97;;;3.15;;
65377;SDS011;51982;51.042;13.806;2022-12-08T16:10:51;3.92;;;2.50;;
65377;SDS011;51982;51.042;13.806;2022-12-08T16:13:18;6.05;;;3.88;;
65377;SDS011;51982;51.042;13.806;2022-12-08T16:16:04;7.88;;;2.88;;
65377;SDS011;51982;51.042;13.806;2022-12-08T16:18:33;5.13;;;3.03;;
65377;SDS011;51982;51.042;13.806;2022-12-08T16:21:01;6.97;;;3.03;;
65377;SDS011;51982;51.042;13.806;2022-12-08T16:23:26;5.70;;;3.53;;
65377;SDS011;51982;51.042;13.806;2022-12-08T16:25:52;5.47;;;3.20;;
65377;SDS011;51982;51.042;13.806;2022-12-08T16:28:18;3.10;;;2.33;;
65377;SDS011;51982;51.042;13.806;2022-12-08T16:30:43;3.42;;;2.40;;
65377;SDS011;51982;51.042;13.806;2022-12-08T16:33:09;4.57;;;2.55;;
65377;SDS011;51982;51.042;13.806;2022-12-08T16:35:35;3.40;;;2.15;;
65377;SDS011;51982;51.042;13.806;2022-12-08T16:38:00;6.38;;;2.63;;
65377;SDS011;51982;51.042;13.806;2022-12-08T16:40:26;6.63;;;2.67;;
65377;SDS011;51982;51.042;13.806;2022-12-08T16:42:51;5.00;;;2.65;;
65377;SDS011;51982;51.042;13.806;2022-12-08T16:45:20;5.07;;;2.67;;